Time;durP1;ratioP1;P1;durP2;ratioP2;P2;SDS_P1;SDS_P2;PMS_P1;PMS_P2;Temp;Humidity;BMP_temperature;BMP_pressure;BME280_temperature;BME280_humidity;BME280_pressure;Samples;Min_cycle;Max_cycle;Signal;HPM_P1;HPM_P2
2022/03/30 00:02:25;;;;;;;;;;;8.70;66.70;;;;;;5052272;28;20417;-77
2022/03/30 00:04:50;;;;;;;;;;;8.60;66.90;;;;;;5051652;28;19924;-78
2022/03/30 00:07:16;;;;;;;;;;;8.50;67.20;;;;;;5052288;28;20307;-78
2022/03/30 00:09:42;;;;;;;;;;;8.40;67.60;;;;;;5051677;28;20000;-78
2022/03/30 00:12:08;;;;;;;;;;;8.50;67.70;;;;;;5052116;28;19924;-78
2022/03/30 00:14:36;;;;;;;;;;;8.50;67.70;;;;;;5052532;28;19925;-78
2022/03/30 00:17:02;;;;;;;;;;;8.40;67.70;;;;;;5052429;28;19971;-78
2022/03/30 00:19:28;;;;;;;;;;;8.50;67.80;;;;;;5050917;28;19916;-78
2022/03/30 00:21:54;;;;;;;;;;;8.50;68.00;;;;;;5051813;28;19913;-78
2022/03/30 00:24:19;;;;;;;;;;;8.50;67.90;;;;;;5050764;28;20015;-78
2022/03/30 00:26:45;;;;;;;;;;;8.40;68.40;;;;;;5052271;28;20003;-78
2022/03/30 00:29:11;;;;;;;;;;;8.40;68.40;;;;;;5050308;28;19975;-77
2022/03/30 00:31:36;;;;;;;;;;;8.40;68.40;;;;;;5051359;28;19938;-78
2022/03/30 00:34:02;;;;;;;;;;;8.30;68.20;;;;;;5057572;28;19939;-77
2022/03/30 00:36:27;;;;;;;;;;;8.30;68.40;;;;;;5051896;28;19996;-77
2022/03/30 00:38:53;;;;;;;;;;;8.20;68.90;;;;;;5050706;28;19942;-77
2022/03/30 00:41:18;;;;;;;;;;;8.10;69.00;;;;;;5050515;28;19952;-77
2022/03/30 00:43:44;;;;;;;;;;;8.10;69.10;;;;;;5048677;28;19917;-77
2022/03/30 00:46:11;;;;;;;;;;;8.10;69.50;;;;;;5052139;28;19923;-78
2022/03/30 00:48:36;;;;;;;;;;;8.10;69.60;;;;;;5050736;28;19912;-77
2022/03/30 00:51:02;;;;;;;;;;;8.00;69.70;;;;;;5051253;28;19987;-77
2022/03/30 00:53:27;;;;;;;;;;;7.80;70.00;;;;;;5040261;28;19913;-77
2022/03/30 00:55:53;;;;;;;;;;;8.00;70.10;;;;;;5046981;28;19919;-77
2022/03/30 00:58:19;;;;;;;;;;;7.90;70.00;;;;;;5047998;28;20434;-77
2022/03/30 01:00:44;;;;;;;;;;;8.00;69.70;;;;;;5051816;28;19921;-76
2022/03/30 01:03:10;;;;;;;;;;;7.90;70.10;;;;;;5051144;28;19921;-77
2022/03/30 01:05:35;;;;;;;;;;;7.70;70.40;;;;;;5053121;28;19970;-77
2022/03/30 01:08:01;;;;;;;;;;;7.80;70.50;;;;;;5047486;28;19935;-77
2022/03/30 01:10:26;;;;;;;;;;;7.80;70.70;;;;;;5048234;28;19912;-77
2022/03/30 01:12:53;;;;;;;;;;;7.80;70.40;;;;;;5048715;28;19987;-77
2022/03/30 01:15:19;;;;;;;;;;;7.70;70.70;;;;;;5048553;28;20009;-77
2022/03/30 01:17:45;;;;;;;;;;;7.60;71.10;;;;;;5046579;28;19947;-77
2022/03/30 01:20:12;;;;;;;;;;;7.60;71.10;;;;;;5048358;28;19917;-77
2022/03/30 01:22:38;;;;;;;;;;;7.60;71.10;;;;;;5046915;28;19979;-77
2022/03/30 01:25:03;;;;;;;;;;;7.60;71.40;;;;;;5046780;28;20281;-77
2022/03/30 01:27:29;;;;;;;;;;;7.50;71.60;;;;;;5048398;28;19917;-76
2022/03/30 01:32:39;;;;;;;;;;;7.50;71.80;;;;;;5049496;28;19928;-78
2022/03/30 01:35:05;;;;;;;;;;;7.40;71.90;;;;;;5048047;28;20339;-77
2022/03/30 01:37:31;;;;;;;;;;;7.50;72.10;;;;;;5048704;28;19971;-77
2022/03/30 01:40:03;;;;;;;;;;;7.30;72.40;;;;;;5046757;28;20000;-77
2022/03/30 01:42:29;;;;;;;;;;;7.30;72.50;;;;;;5048109;28;19986;-77
2022/03/30 01:44:54;;;;;;;;;;;7.40;72.40;;;;;;5048529;28;19963;-77
2022/03/30 01:47:20;;;;;;;;;;;7.30;72.40;;;;;;5048828;28;19913;-77
2022/03/30 01:49:45;;;;;;;;;;;7.20;72.80;;;;;;5047510;28;19916;-77
2022/03/30 01:52:11;;;;;;;;;;;7.30;72.90;;;;;;5048063;28;20020;-77
2022/03/30 01:54:39;;;;;;;;;;;7.10;73.00;;;;;;5044337;28;19913;-78
2022/03/30 01:57:05;;;;;;;;;;;7.10;73.40;;;;;;5044763;28;20175;-77
2022/03/30 01:59:30;;;;;;;;;;;7.10;73.40;;;;;;5048637;28;20374;-77
2022/03/30 02:01:55;;;;;;;;;;;7.00;73.60;;;;;;5048555;28;19978;-77
2022/03/30 02:04:21;;;;;;;;;;;7.10;73.20;;;;;;5046467;28;19913;-77
2022/03/30 02:06:46;;;;;;;;;;;7.10;73.00;;;;;;5048908;28;19924;-77
2022/03/30 02:09:14;;;;;;;;;;;7.10;73.40;;;;;;5048060;28;19913;-78
2022/03/30 02:11:40;;;;;;;;;;;7.00;73.70;;;;;;5047999;28;19913;-78
2022/03/30 02:14:05;;;;;;;;;;;6.90;73.70;;;;;;5047116;28;19919;-77
2022/03/30 02:16:30;;;;;;;;;;;6.90;74.10;;;;;;5047553;28;20000;-77
2022/03/30 02:18:56;;;;;;;;;;;6.90;74.30;;;;;;5048195;28;19919;-77
2022/03/30 02:21:22;;;;;;;;;;;6.90;74.20;;;;;;5048642;28;19908;-78
2022/03/30 02:23:49;;;;;;;;;;;6.90;74.30;;;;;;5048538;28;20292;-77
2022/03/30 02:26:15;;;;;;;;;;;6.90;74.30;;;;;;5047566;28;20015;-78
2022/03/30 02:28:45;;;;;;;;;;;6.90;74.10;;;;;;5047296;28;20039;-77
2022/03/30 02:31:10;;;;;;;;;;;6.70;74.40;;;;;;5047442;28;19913;-77
2022/03/30 02:33:36;;;;;;;;;;;6.50;74.70;;;;;;5044009;28;19947;-77
2022/03/30 02:36:02;;;;;;;;;;;6.50;75.00;;;;;;5047698;28;19909;-77
2022/03/30 02:38:27;;;;;;;;;;;6.50;75.10;;;;;;5046390;28;19917;-77
2022/03/30 02:40:53;;;;;;;;;;;6.50;75.00;;;;;;5047039;28;19924;-77
2022/03/30 02:43:19;;;;;;;;;;;6.50;75.30;;;;;;5049941;28;19913;-77
2022/03/30 02:45:46;;;;;;;;;;;6.60;75.00;;;;;;5050173;28;20006;-77
2022/03/30 02:48:17;;;;;;;;;;;6.50;75.00;;;;;;5050646;28;20400;-77
2022/03/30 02:51:25;;;;;;;;;;;;;;;;;;;;;
2022/03/30 02:54:32;;;;;;;;;;;6.50;75.40;;;;;;5046591;28;19931;-84
2022/03/30 02:57:01;;;;;;;;;;;6.50;75.50;;;;;;5016420;28;19924;-85
2022/03/30 02:59:35;;;;;;;;;;;6.40;75.60;;;;;;5015789;28;20387;-85
2022/03/30 03:02:28;;;;;;;;;;;6.40;75.40;;;;;;5035357;28;19913;-85
2022/03/30 03:05:27;;;;;;;;;;;6.30;75.50;;;;;;5051787;28;19972;-85
2022/03/30 03:08:03;;;;;;;;;;;6.30;75.90;;;;;;5048016;28;19948;-85
2022/03/30 03:11:02;;;;;;;;;;;6.20;75.80;;;;;;5039964;28;20344;-84
2022/03/30 03:13:40;;;;;;;;;;;6.10;76.10;;;;;;5043698;28;19923;-85
2022/03/30 03:16:26;;;;;;;;;;;6.20;76.00;;;;;;5040262;28;19913;-85
2022/03/30 03:19:28;;;;;;;;;;;6.10;76.00;;;;;;5014426;28;20415;-85
2022/03/30 03:22:30;;;;;;;;;;;;;;;;;;;;;
2022/03/30 03:25:04;;;;;;;;;;;6.00;76.70;;;;;;5023243;28;19927;-85
2022/03/30 03:27:41;;;;;;;;;;;5.90;77.10;;;;;;5030752;28;19917;-85
2022/03/30 03:30:31;;;;;;;;;;;5.90;77.10;;;;;;5039057;28;19913;-85
2022/03/30 03:33:20;;;;;;;;;;;5.80;77.10;;;;;;5033296;28;19917;-85
2022/03/30 03:36:08;;;;;;;;;;;5.80;77.10;;;;;;5039396;28;19913;-84
2022/03/30 03:48:05;;;;;;;;;;;5.50;78.20;;;;;;4969888;28;20429;-85
2022/03/30 03:50:42;;;;;;;;;;;5.60;78.00;;;;;;5032354;28;20081;-85
2022/03/30 03:56:37;;;;;;;;;;;5.50;78.00;;;;;;5048164;28;19929;-85
2022/03/30 03:59:29;;;;;;;;;;;5.40;78.10;;;;;;5036778;28;19968;-85
2022/03/30 04:02:13;;;;;;;;;;;5.30;78.20;;;;;;5041038;28;19905;-83
2022/03/30 04:08:11;;;;;;;;;;;5.20;78.60;;;;;;5032138;28;19913;-85
2022/03/30 04:10:46;;;;;;;;;;;5.30;78.60;;;;;;5022391;28;19967;-84
2022/03/30 04:13:20;;;;;;;;;;;5.30;78.50;;;;;;5041020;28;19926;-84
2022/03/30 04:15:45;;;;;;;;;;;5.40;78.00;;;;;;5045776;28;20027;-85
2022/03/30 04:18:11;;;;;;;;;;;5.30;78.30;;;;;;5025791;28;19957;-85
2022/03/30 04:20:50;;;;;;;;;;;5.30;78.20;;;;;;5032125;28;19910;-84
2022/03/30 04:23:30;;;;;;;;;;;5.30;78.70;;;;;;5026792;28;19913;-83
2022/03/30 04:25:55;;;;;;;;;;;5.30;78.50;;;;;;5047630;28;19992;-84
2022/03/30 04:38:14;;;;;;;;;;;5.30;78.10;;;;;;5013154;28;20001;-85
2022/03/30 04:43:49;;;;;;;;;;;5.10;78.80;;;;;;5038884;28;19924;-85
2022/03/30 04:49:45;;;;;;;;;;;5.20;78.20;;;;;;5038023;28;20310;-85
2022/03/30 04:52:10;;;;;;;;;;;5.10;78.60;;;;;;5045181;28;19917;-85
2022/03/30 04:58:06;;;;;;;;;;;4.90;79.10;;;;;;5040145;28;19918;-85
2022/03/30 05:00:57;;;;;;;;;;;4.90;79.10;;;;;;5051863;28;20350;-85
2022/03/30 05:03:31;;;;;;;;;;;4.80;79.30;;;;;;5045935;28;19958;-84
2022/03/30 05:06:02;;;;;;;;;;;4.80;79.40;;;;;;5035424;28;19939;-85
2022/03/30 05:08:33;;;;;;;;;;;4.80;79.40;;;;;;5031506;28;19917;-85
2022/03/30 05:11:31;;;;;;;;;;;4.70;79.50;;;;;;5038924;28;19992;-83
2022/03/30 05:13:56;;;;;;;;;;;4.60;79.70;;;;;;5047468;28;19901;-85
2022/03/30 05:16:47;;;;;;;;;;;4.70;79.60;;;;;;5044521;28;19905;-84
2022/03/30 05:19:37;;;;;;;;;;;4.80;79.40;;;;;;5028254;28;19914;-86
2022/03/30 05:22:10;;;;;;;;;;;4.60;79.40;;;;;;5029124;28;19974;-84
2022/03/30 05:24:53;;;;;;;;;;;4.70;79.50;;;;;;5034442;28;19913;-84
2022/03/30 05:27:19;;;;;;;;;;;4.60;79.70;;;;;;5034994;28;19918;-84
2022/03/30 05:29:44;;;;;;;;;;;4.60;79.70;;;;;;5037861;28;19922;-84
2022/03/30 05:32:10;;;;;;;;;;;4.70;79.80;;;;;;5018089;28;19940;-85
2022/03/30 05:34:35;;;;;;;;;;;4.60;79.80;;;;;;5032430;28;19934;-83
2022/03/30 05:37:01;;;;;;;;;;;4.70;79.60;;;;;;5019747;28;19952;-84
2022/03/30 05:39:26;;;;;;;;;;;4.70;79.70;;;;;;5031085;28;19913;-84
2022/03/30 05:41:52;;;;;;;;;;;4.80;79.40;;;;;;5033480;28;20428;-83
2022/03/30 05:44:18;;;;;;;;;;;4.70;79.20;;;;;;5018021;28;19920;-84
2022/03/30 05:46:43;;;;;;;;;;;4.70;79.40;;;;;;5023575;28;20000;-85
2022/03/30 05:49:09;;;;;;;;;;;4.70;79.20;;;;;;5032863;28;20390;-85
2022/03/30 05:51:34;;;;;;;;;;;4.60;79.50;;;;;;5022918;28;20409;-83
2022/03/30 05:54:02;;;;;;;;;;;4.60;79.40;;;;;;5018844;28;20291;-90
2022/03/30 05:59:34;;;;;;;;;;;4.70;79.60;;;;;;5026918;28;19920;-89
2022/03/30 06:02:15;;;;;;;;;;;4.60;79.80;;;;;;5035948;28;19913;-90
2022/03/30 06:04:58;;;;;;;;;;;4.50;79.70;;;;;;5035852;28;20086;-87
2022/03/30 06:07:50;;;;;;;;;;;4.50;79.70;;;;;;5037087;28;20000;-88
2022/03/30 06:10:27;;;;;;;;;;;4.50;80.10;;;;;;5036815;28;19936;-88
2022/03/30 06:13:11;;;;;;;;;;;4.60;79.80;;;;;;5040115;28;20280;-85
2022/03/30 06:15:38;;;;;;;;;;;4.70;79.70;;;;;;5032288;28;20052;-88
2022/03/30 06:18:10;;;;;;;;;;;4.90;79.30;;;;;;5049596;28;19917;-87
2022/03/30 06:20:42;;;;;;;;;;;4.80;79.20;;;;;;5049829;28;19925;-87
2022/03/30 06:23:48;;;;;;;;;;;5.00;79.10;;;;;;5041581;28;20347;-88
2022/03/30 06:26:28;;;;;;;;;;;4.90;78.60;;;;;;5062153;28;19924;-86
2022/03/30 06:29:07;;;;;;;;;;;4.80;78.70;;;;;;5029779;28;19913;-87
2022/03/30 06:31:38;;;;;;;;;;;4.90;78.70;;;;;;5050219;28;19912;-86
2022/03/30 06:34:26;;;;;;;;;;;4.80;79.10;;;;;;5047412;28;19960;-87
2022/03/30 06:37:10;;;;;;;;;;;4.90;79.00;;;;;;5063633;28;19921;-87
2022/03/30 06:40:11;;;;;;;;;;;;;;;;;;;;;
2022/03/30 06:42:38;;;;;;;;;;;5.10;78.40;;;;;;5033689;28;20008;-87
2022/03/30 06:45:09;;;;;;;;;;;5.00;78.80;;;;;;5038816;28;19980;-85
2022/03/30 06:54:02;;;;;;;;;;;5.00;79.00;;;;;;5040809;28;19951;-86
2022/03/30 06:56:33;;;;;;;;;;;5.10;78.70;;;;;;5032121;28;19972;-87
2022/03/30 06:59:05;;;;;;;;;;;5.10;78.70;;;;;;5027875;28;19940;-87
2022/03/30 07:01:51;;;;;;;;;;;5.10;78.70;;;;;;5048180;28;19924;-86
2022/03/30 07:04:23;;;;;;;;;;;5.20;78.40;;;;;;5033974;28;19959;-86
2022/03/30 07:12:38;;;;;;;;;;;5.60;77.70;;;;;;5038228;28;20355;-87
2022/03/30 07:15:04;;;;;;;;;;;5.80;76.90;;;;;;5048168;28;19909;-86
2022/03/30 07:17:58;;;;;;;;;;;5.80;77.10;;;;;;5038975;28;19921;-87
2022/03/30 07:23:23;;;;;;;;;;;5.80;76.00;;;;;;5046540;28;19920;-86
2022/03/30 07:26:10;;;;;;;;;;;5.60;76.50;;;;;;5035071;28;20081;-86
2022/03/30 07:28:47;;;;;;;;;;;5.80;76.80;;;;;;5037891;28;19913;-86
2022/03/30 07:31:30;;;;;;;;;;;5.90;75.90;;;;;;5037376;28;19977;-86
2022/03/30 07:34:19;;;;;;;;;;;6.00;76.10;;;;;;5042659;28;19978;-87
2022/03/30 07:37:07;;;;;;;;;;;;;;;;;;;;;
2022/03/30 07:39:39;;;;;;;;;;;6.30;75.40;;;;;;5036119;28;19916;-86
2022/03/30 07:42:13;;;;;;;;;;;6.20;74.60;;;;;;5051845;28;19932;-86
2022/03/30 07:44:52;;;;;;;;;;;;;;;;;;;;;
2022/03/30 07:47:26;;;;;;;;;;;6.10;75.10;;;;;;5031080;28;20435;-87
2022/03/30 07:50:04;;;;;;;;;;;6.30;76.40;;;;;;5033872;28;19917;-87
2022/03/30 07:52:39;;;;;;;;;;;6.30;76.60;;;;;;5032321;28;20013;-87
2022/03/30 07:55:34;;;;;;;;;;;6.40;75.70;;;;;;5050941;28;19901;-86
2022/03/30 07:58:13;;;;;;;;;;;;;;;;;;;;;
2022/03/30 08:00:42;;;;;;;;;;;6.30;75.80;;;;;;5020146;28;19993;-86
2022/03/30 08:06:27;;;;;;;;;;;6.40;75.80;;;;;;4987240;28;19949;-86
2022/03/30 08:08:52;;;;;;;;;;;6.40;76.00;;;;;;5039789;22;20297;-84
2022/03/30 08:11:18;;;;;;;;;;;6.50;75.80;;;;;;5034449;28;19952;-84
2022/03/30 08:13:44;;;;;;;;;;;6.60;76.20;;;;;;5036455;28;19919;-84
2022/03/30 08:16:09;;;;;;;;;;;6.70;75.70;;;;;;5034804;28;19917;-84
2022/03/30 08:18:34;;;;;;;;;;;6.70;75.40;;;;;;5036042;28;19928;-86
2022/03/30 08:23:44;;;;;;;;;;;6.80;76.50;;;;;;5034962;28;20400;-83
2022/03/30 08:26:10;;;;;;;;;;;7.10;75.30;;;;;;5034793;28;19917;-85
2022/03/30 08:28:35;;;;;;;;;;;7.20;73.80;;;;;;5035291;28;20369;-83
2022/03/30 08:31:01;;;;;;;;;;;7.20;73.80;;;;;;5031792;28;20003;-84
2022/03/30 08:33:26;;;;;;;;;;;7.30;72.50;;;;;;5033688;28;19921;-84
2022/03/30 08:35:55;;;;;;;;;;;7.50;72.30;;;;;;5034681;28;19959;-84
2022/03/30 08:38:21;;;;;;;;;;;7.60;71.70;;;;;;5035947;28;19909;-83
2022/03/30 08:40:47;;;;;;;;;;;7.70;71.40;;;;;;5034755;28;20029;-83
2022/03/30 08:43:12;;;;;;;;;;;7.70;70.70;;;;;;5037256;28;19913;-84
2022/03/30 08:45:38;;;;;;;;;;;7.60;70.90;;;;;;5034105;28;21617;-84
2022/03/30 08:48:05;;;;;;;;;;;7.80;69.70;;;;;;5035113;28;19913;-83
2022/03/30 08:50:30;;;;;;;;;;;7.90;68.70;;;;;;5031533;28;19913;-82
2022/03/30 08:52:58;;;;;;;;;;;7.80;68.70;;;;;;5033793;28;19941;-84
2022/03/30 08:55:23;;;;;;;;;;;7.60;69.20;;;;;;5033209;28;19914;-83
2022/03/30 08:57:49;;;;;;;;;;;7.70;69.90;;;;;;5033706;28;19927;-83
2022/03/30 09:00:19;;;;;;;;;;;7.70;69.70;;;;;;5033374;28;19909;-83
2022/03/30 09:03:00;;;;;;;;;;;7.80;69.80;;;;;;5033202;28;19909;-83
2022/03/30 09:05:27;;;;;;;;;;;8.00;69.00;;;;;;5032965;28;19917;-84
2022/03/30 09:07:57;;;;;;;;;;;8.00;68.60;;;;;;5034261;28;19931;-83
2022/03/30 09:10:23;;;;;;;;;;;8.10;69.00;;;;;;5032366;28;19917;-82
2022/03/30 09:12:50;;;;;;;;;;;8.20;68.90;;;;;;5038450;28;19995;-83
2022/03/30 09:15:16;;;;;;;;;;;8.30;67.70;;;;;;5036955;28;19924;-83
2022/03/30 09:17:42;;;;;;;;;;;8.40;68.40;;;;;;5038781;28;20381;-83
2022/03/30 09:20:19;;;;;;;;;;;8.50;67.80;;;;;;5036189;28;20449;-83
2022/03/30 09:22:46;;;;;;;;;;;8.30;67.60;;;;;;5032998;28;19917;-83
2022/03/30 09:25:12;;;;;;;;;;;8.60;67.80;;;;;;5033890;28;19956;-83
2022/03/30 09:27:42;;;;;;;;;;;8.70;66.40;;;;;;5033776;28;19909;-83
2022/03/30 09:30:09;;;;;;;;;;;8.70;67.10;;;;;;5037825;28;19913;-82
2022/03/30 09:32:35;;;;;;;;;;;8.70;64.70;;;;;;5035613;28;19928;-81
2022/03/30 09:35:00;;;;;;;;;;;8.70;66.60;;;;;;5048224;28;19913;-82
2022/03/30 09:37:26;;;;;;;;;;;8.70;65.80;;;;;;5040532;28;19940;-84
2022/03/30 09:39:51;;;;;;;;;;;8.70;65.50;;;;;;5040733;28;19956;-83
2022/03/30 09:42:18;;;;;;;;;;;8.80;65.80;;;;;;5033829;28;20047;-84
2022/03/30 09:44:45;;;;;;;;;;;9.00;65.90;;;;;;5034964;28;19952;-82
2022/03/30 09:47:11;;;;;;;;;;;9.10;63.70;;;;;;5030586;28;20389;-83
2022/03/30 09:49:45;;;;;;;;;;;8.90;63.40;;;;;;5033912;28;19913;-83
2022/03/30 09:52:29;;;;;;;;;;;8.90;64.40;;;;;;5035207;28;19920;-83
2022/03/30 09:54:57;;;;;;;;;;;9.00;63.70;;;;;;5039529;28;20008;-83
2022/03/30 09:57:38;;;;;;;;;;;9.10;64.00;;;;;;5038932;28;19963;-82
2022/03/30 10:00:17;;;;;;;;;;;9.10;63.40;;;;;;5035705;28;19913;-84
2022/03/30 10:02:52;;;;;;;;;;;9.40;62.90;;;;;;5031488;28;20063;-84
2022/03/30 10:05:19;;;;;;;;;;;9.30;61.90;;;;;;5038748;28;20040;-83
2022/03/30 10:07:45;;;;;;;;;;;9.20;61.90;;;;;;5041220;28;19909;-83
2022/03/30 10:10:12;;;;;;;;;;;9.20;62.50;;;;;;5035837;28;20370;-81
2022/03/30 10:12:38;;;;;;;;;;;9.10;62.80;;;;;;5038990;28;19913;-84
2022/03/30 10:15:05;;;;;;;;;;;9.10;62.70;;;;;;5043746;28;20304;-83
2022/03/30 10:17:30;;;;;;;;;;;9.30;63.00;;;;;;5038784;28;19913;-83
2022/03/30 10:19:58;;;;;;;;;;;9.30;62.50;;;;;;5038390;28;19923;-84
2022/03/30 10:22:26;;;;;;;;;;;9.50;62.60;;;;;;5037715;28;20534;-83
2022/03/30 10:25:04;;;;;;;;;;;9.60;62.30;;;;;;5040338;28;19943;-85
2022/03/30 10:27:35;;;;;;;;;;;9.60;60.70;;;;;;5040822;28;19924;-83
2022/03/30 10:30:02;;;;;;;;;;;9.80;61.10;;;;;;5034986;28;19963;-84
2022/03/30 10:32:33;;;;;;;;;;;9.70;59.80;;;;;;5040540;28;19913;-85
2022/03/30 10:35:07;;;;;;;;;;;9.80;60.40;;;;;;5038851;28;20004;-84
2022/03/30 10:37:34;;;;;;;;;;;9.80;60.00;;;;;;5055729;28;19913;-83
2022/03/30 10:40:03;;;;;;;;;;;9.90;62.10;;;;;;5040401;28;19920;-83
2022/03/30 10:42:47;;;;;;;;;;;10.00;61.10;;;;;;5039204;28;19913;-82
2022/03/30 10:45:30;;;;;;;;;;;10.30;59.60;;;;;;5041091;28;19953;-83
2022/03/30 10:48:05;;;;;;;;;;;10.30;60.90;;;;;;5039770;28;19914;-83
2022/03/30 10:50:36;;;;;;;;;;;10.40;61.30;;;;;;5038082;28;20334;-82
2022/03/30 10:53:02;;;;;;;;;;;10.40;60.70;;;;;;5040277;28;20289;-83
2022/03/30 10:55:33;;;;;;;;;;;10.30;60.30;;;;;;5037441;28;19920;-83
2022/03/30 10:58:03;;;;;;;;;;;10.10;61.20;;;;;;5036822;28;20390;-83
2022/03/30 11:00:33;;;;;;;;;;;10.20;60.50;;;;;;5037091;28;19915;-83
2022/03/30 11:03:16;;;;;;;;;;;10.20;58.40;;;;;;5037403;28;19909;-84
2022/03/30 11:05:46;;;;;;;;;;;10.30;58.40;;;;;;5030617;28;19922;-84
2022/03/30 11:08:30;;;;;;;;;;;10.40;59.40;;;;;;5035269;28;19909;-86
2022/03/30 11:10:56;;;;;;;;;;;10.30;60.80;;;;;;5042170;28;20286;-83
2022/03/30 11:13:25;;;;;;;;;;;10.40;57.70;;;;;;5035261;28;19917;-86
2022/03/30 11:15:57;;;;;;;;;;;10.40;57.80;;;;;;5037149;28;20003;-85
2022/03/30 11:18:22;;;;;;;;;;;10.60;57.20;;;;;;5035964;28;19936;-84
2022/03/30 11:21:07;;;;;;;;;;;10.70;57.80;;;;;;5038982;28;19943;-81
2022/03/30 11:23:32;;;;;;;;;;;10.80;57.90;;;;;;5034707;28;20289;-85
2022/03/30 11:25:58;;;;;;;;;;;10.70;58.40;;;;;;5026744;28;19943;-82
2022/03/30 11:28:41;;;;;;;;;;;10.80;59.30;;;;;;5034671;28;19943;-84
2022/03/30 11:31:20;;;;;;;;;;;11.10;56.00;;;;;;5024606;28;20294;-82
2022/03/30 11:34:06;;;;;;;;;;;11.10;56.80;;;;;;5027467;28;19929;-83
2022/03/30 11:36:31;;;;;;;;;;;11.00;57.00;;;;;;5034743;28;19913;-85
2022/03/30 11:38:59;;;;;;;;;;;10.70;56.90;;;;;;5035612;28;20361;-84
2022/03/30 11:41:25;;;;;;;;;;;10.90;57.40;;;;;;5037129;28;19928;-84
2022/03/30 11:46:38;;;;;;;;;;;10.90;57.80;;;;;;5034915;28;19936;-84
2022/03/30 11:49:04;;;;;;;;;;;10.70;56.80;;;;;;5036490;28;19921;-84
2022/03/30 11:51:29;;;;;;;;;;;10.70;57.50;;;;;;5035930;28;19913;-84
2022/03/30 11:54:14;;;;;;;;;;;10.80;57.60;;;;;;5034133;28;19940;-81
2022/03/30 11:56:40;;;;;;;;;;;11.00;57.40;;;;;;5033999;28;19929;-81
2022/03/30 11:59:06;;;;;;;;;;;10.90;57.10;;;;;;5040230;28;20329;-79
2022/03/30 12:01:35;;;;;;;;;;;11.00;57.00;;;;;;5035128;28;19917;-83
2022/03/30 12:04:01;;;;;;;;;;;10.80;57.80;;;;;;5034778;28;20329;-82
2022/03/30 12:06:27;;;;;;;;;;;11.00;56.90;;;;;;5035129;28;19924;-83
2022/03/30 12:08:52;;;;;;;;;;;10.80;57.50;;;;;;5035699;28;19917;-81
2022/03/30 12:11:19;;;;;;;;;;;11.10;56.90;;;;;;5035215;28;19913;-80
2022/03/30 12:13:55;;;;;;;;;;;11.10;56.10;;;;;;5041107;28;19920;-80
2022/03/30 12:16:21;;;;;;;;;;;11.20;55.60;;;;;;5037909;28;19970;-80
2022/03/30 12:18:48;;;;;;;;;;;11.20;55.70;;;;;;5034599;28;20266;-80
2022/03/30 12:21:14;;;;;;;;;;;11.20;55.30;;;;;;5036595;28;19920;-80
2022/03/30 12:23:50;;;;;;;;;;;11.30;55.60;;;;;;5036704;28;19974;-80
2022/03/30 12:26:16;;;;;;;;;;;11.20;55.50;;;;;;5031509;28;20399;-79
2022/03/30 12:28:42;;;;;;;;;;;11.30;55.90;;;;;;5034697;28;19917;-79
2022/03/30 12:31:08;;;;;;;;;;;11.30;55.80;;;;;;5031592;28;19996;-79
2022/03/30 12:33:41;;;;;;;;;;;11.60;55.50;;;;;;5031407;28;19924;-80
2022/03/30 12:36:17;;;;;;;;;;;11.80;54.80;;;;;;5033510;28;19952;-80
2022/03/30 12:38:42;;;;;;;;;;;11.80;54.10;;;;;;5031976;28;19920;-79
2022/03/30 12:41:08;;;;;;;;;;;11.70;54.70;;;;;;5030177;28;19913;-79
2022/03/30 12:43:33;;;;;;;;;;;12.00;54.70;;;;;;5033283;28;20397;-80
2022/03/30 12:46:03;;;;;;;;;;;12.00;54.30;;;;;;5036760;28;19952;-78
2022/03/30 12:48:29;;;;;;;;;;;11.90;53.40;;;;;;5040373;28;19913;-80
2022/03/30 12:50:58;;;;;;;;;;;11.70;53.60;;;;;;5037711;28;19956;-80
2022/03/30 12:53:29;;;;;;;;;;;11.60;54.10;;;;;;5034163;28;20289;-80
2022/03/30 12:55:55;;;;;;;;;;;11.60;54.10;;;;;;5041277;28;19913;-81
2022/03/30 12:58:23;;;;;;;;;;;11.60;55.80;;;;;;5038530;28;20381;-80
2022/03/30 13:00:49;;;;;;;;;;;11.60;53.50;;;;;;5036240;28;20404;-81
2022/03/30 13:03:25;;;;;;;;;;;11.50;53.10;;;;;;5029980;28;20400;-81
2022/03/30 13:06:07;;;;;;;;;;;11.60;52.30;;;;;;5034033;28;19921;-81
2022/03/30 13:08:34;;;;;;;;;;;11.70;52.80;;;;;;5025145;28;19932;-82
2022/03/30 13:11:01;;;;;;;;;;;11.60;54.50;;;;;;5037747;28;20161;-82
2022/03/30 13:13:28;;;;;;;;;;;12.00;53.50;;;;;;5044086;28;19913;-81
2022/03/30 13:16:05;;;;;;;;;;;12.30;52.80;;;;;;5039273;28;19970;-80
2022/03/30 13:18:31;;;;;;;;;;;12.30;52.30;;;;;;5043008;28;19913;-81
2022/03/30 13:20:59;;;;;;;;;;;12.00;51.60;;;;;;5029259;28;20012;-81
2022/03/30 13:23:35;;;;;;;;;;;11.60;52.10;;;;;;5040045;28;19984;-81
2022/03/30 13:26:01;;;;;;;;;;;11.60;52.90;;;;;;5035188;28;19920;-80
2022/03/30 13:28:28;;;;;;;;;;;11.70;51.80;;;;;;5034627;28;19985;-81
2022/03/30 13:30:54;;;;;;;;;;;11.90;52.60;;;;;;5037395;28;19963;-81
2022/03/30 13:33:20;;;;;;;;;;;12.30;51.70;;;;;;5037052;28;19917;-81
2022/03/30 13:35:50;;;;;;;;;;;12.60;51.10;;;;;;5041398;28;20378;-81
2022/03/30 13:38:17;;;;;;;;;;;12.70;51.80;;;;;;5042111;28;19932;-81
2022/03/30 13:40:46;;;;;;;;;;;12.70;50.60;;;;;;5038220;28;19913;-79
2022/03/30 13:43:12;;;;;;;;;;;12.50;51.40;;;;;;5038218;28;19942;-80
2022/03/30 13:45:38;;;;;;;;;;;12.70;51.60;;;;;;5039268;28;19913;-81
2022/03/30 13:48:05;;;;;;;;;;;12.60;50.60;;;;;;5035708;28;19917;-82
2022/03/30 13:50:30;;;;;;;;;;;12.60;51.90;;;;;;5039200;28;19913;-81
2022/03/30 13:52:56;;;;;;;;;;;12.50;51.20;;;;;;5033385;28;19936;-81
2022/03/30 13:55:22;;;;;;;;;;;12.50;51.10;;;;;;5036121;28;20376;-81
2022/03/30 13:57:48;;;;;;;;;;;12.40;50.00;;;;;;5033448;28;19987;-82
2022/03/30 14:00:14;;;;;;;;;;;12.30;51.00;;;;;;5032573;28;20269;-81
2022/03/30 14:02:40;;;;;;;;;;;12.10;51.20;;;;;;5034024;28;19932;-81
2022/03/30 14:05:06;;;;;;;;;;;12.10;51.50;;;;;;5030034;28;19934;-82
2022/03/30 14:07:31;;;;;;;;;;;12.30;51.20;;;;;;5032884;28;20384;-79
2022/03/30 14:09:57;;;;;;;;;;;12.30;51.30;;;;;;5031138;28;19925;-82
2022/03/30 14:12:23;;;;;;;;;;;12.50;51.20;;;;;;5035785;28;20341;-82
2022/03/30 14:14:49;;;;;;;;;;;12.40;50.80;;;;;;5034228;28;19913;-81
2022/03/30 14:17:15;;;;;;;;;;;12.30;51.10;;;;;;5037123;28;19913;-81
2022/03/30 14:19:42;;;;;;;;;;;12.10;50.10;;;;;;5035729;28;19967;-81
2022/03/30 14:22:08;;;;;;;;;;;12.10;51.10;;;;;;5035019;28;20007;-81
2022/03/30 14:24:34;;;;;;;;;;;12.00;51.30;;;;;;5034814;28;19921;-81
2022/03/30 14:27:00;;;;;;;;;;;12.00;51.30;;;;;;5034967;28;20420;-81
2022/03/30 14:29:25;;;;;;;;;;;12.00;50.90;;;;;;5034563;28;19925;-81
2022/03/30 14:31:52;;;;;;;;;;;12.10;51.00;;;;;;5034766;28;19917;-81
2022/03/30 14:34:18;;;;;;;;;;;12.00;52.30;;;;;;5034950;28;19914;-81
2022/03/30 14:36:44;;;;;;;;;;;12.10;52.40;;;;;;5036866;28;19920;-82
2022/03/30 14:39:10;;;;;;;;;;;12.10;52.00;;;;;;5037179;28;19913;-81
2022/03/30 14:41:35;;;;;;;;;;;12.00;52.30;;;;;;5040103;28;19920;-82
2022/03/30 14:44:01;;;;;;;;;;;12.10;52.40;;;;;;5040355;28;19917;-82
2022/03/30 14:46:26;;;;;;;;;;;12.00;51.80;;;;;;5038556;28;20375;-82
2022/03/30 14:48:55;;;;;;;;;;;12.10;51.80;;;;;;5039254;28;19956;-82
2022/03/30 14:51:22;;;;;;;;;;;12.00;52.70;;;;;;5040457;28;19924;-82
2022/03/30 14:53:48;;;;;;;;;;;11.90;52.30;;;;;;5038157;28;19913;-81
2022/03/30 14:56:14;;;;;;;;;;;12.00;52.30;;;;;;5037436;28;19931;-81
2022/03/30 14:58:39;;;;;;;;;;;12.10;51.80;;;;;;5038790;22;20093;-82
2022/03/30 15:01:05;;;;;;;;;;;12.10;52.10;;;;;;5013697;28;20427;-81
2022/03/30 15:03:31;;;;;;;;;;;12.30;50.50;;;;;;5026744;28;20121;-80
2022/03/30 15:05:56;;;;;;;;;;;12.10;50.50;;;;;;5018813;28;19921;-82
2022/03/30 15:08:22;;;;;;;;;;;12.10;51.10;;;;;;5024264;28;20190;-81
2022/03/30 15:10:48;;;;;;;;;;;12.10;51.30;;;;;;4996628;28;19960;-81
2022/03/30 15:13:13;;;;;;;;;;;12.00;51.60;;;;;;5019319;28;20411;-82
2022/03/30 15:15:39;;;;;;;;;;;12.00;52.20;;;;;;4998388;28;19975;-82
2022/03/30 15:18:04;;;;;;;;;;;12.20;51.80;;;;;;4988688;28;20731;-80
2022/03/30 15:20:30;;;;;;;;;;;12.00;52.00;;;;;;5007291;28;19910;-81
2022/03/30 15:22:57;;;;;;;;;;;12.10;52.30;;;;;;4993522;28;19974;-80
2022/03/30 15:25:23;;;;;;;;;;;12.20;52.20;;;;;;4996794;28;20102;-80
2022/03/30 15:27:50;;;;;;;;;;;12.00;52.50;;;;;;4961805;28;20219;-81
2022/03/30 15:30:16;;;;;;;;;;;12.00;52.20;;;;;;4954899;28;20163;-81
2022/03/30 15:32:43;;;;;;;;;;;12.10;52.10;;;;;;4966075;28;19936;-81
2022/03/30 15:35:09;;;;;;;;;;;12.00;52.30;;;;;;4992664;28;20264;-81
2022/03/30 15:37:36;;;;;;;;;;;12.00;52.20;;;;;;4995251;28;20098;-81
2022/03/30 15:40:02;;;;;;;;;;;11.80;52.60;;;;;;4993196;28;20150;-81
2022/03/30 15:42:29;;;;;;;;;;;11.80;52.20;;;;;;4998420;28;20191;-81
2022/03/30 15:44:55;;;;;;;;;;;11.70;52.20;;;;;;5007300;28;20251;-81
2022/03/30 15:47:21;;;;;;;;;;;11.60;52.30;;;;;;4989677;28;20542;-86
2022/03/30 15:49:47;;;;;;;;;;;11.60;52.60;;;;;;4988149;28;19913;-83
2022/03/30 15:52:15;;;;;;;;;;;11.60;52.80;;;;;;4992431;28;19913;-82
2022/03/30 15:54:42;;;;;;;;;;;11.70;52.30;;;;;;4992399;28;20284;-83
2022/03/30 15:57:08;;;;;;;;;;;11.60;52.90;;;;;;5003981;28;20079;-83